Hlavní strana
METAR-TAF:

METAR-TAF

Letiště :

Fort-de-France, Martinik

zeměpisná šířka: 14-36N, zeměpisná délka: 061-00W, výška: 5 m

Aktuální stav počasí

Zpráva byla vytvořena před 23 minutami, v 11:30 UTC
Východní vítr 7 kt
Teplota 26°C
Vlhkost vzduchu 70%
Tlak 1018 hPa
Viditelnost 10 km a více
Skoro jasno ve výšce 4700 ft

METAR: TFFF 121130Z AUTO 10007KT 9999 FEW047 26/20 Q1018 NOSIG

Čas: 07:53 (11:53 UTC)

Předpověď počasí

Zpráva byla vytvořena před 53 minutami, v 11:00 UTC
Předpověď platná od 12 v 12 UTC do 13 v 12 UTC
Východní vítr 7 kt
Viditelnost 10 km a více
Polojasno ve výšce 2600 ft
Oblačno až skoro zataženo ve výšce 5000 ft
Dočasný
od 13 v 00 UTC do 13 v 12 UTC
Viditelnost: 4000 m
Oblačno až skoro zataženo ve výšce 1800 ft, Vertikální cumulus.
dešťové přeháňky

TAF: TFFF 121100Z 1212/1312 10007KT 9999 SCT026 BKN050 TEMPO 1300/1312 4000 SHRA BKN018TCU

Stav a předpovědi počasí z více než 4 000 letišť (zprávy METAR a TAF).

Červené a žluté tečky na mapě představují dostupné meteorologické stanice.

Když kurzor umístíte na tečku, zobrazí se název stanice.

Pak kliknutím zobrazíte stav a předpověď počasí.

Chcete-li změnit mapu, kliknutím na zelené tlačítko se znaménkem +mapu přiblížíte, kliknutím na zelené tlačítko se znaménkem – mapu oddálíte a kliknutím na zelené šipky přejdete na sousední mapy.


METAR-TAF: